createdAt,value
2022-09-07T00:01:20.645Z,51.21
2022-09-07T00:03:54.484Z,51.01
2022-09-07T00:06:23.751Z,51.36
2022-09-07T00:08:53.545Z,51.06
2022-09-07T00:11:21.959Z,51.31
2022-09-07T00:13:50.634Z,51.11
2022-09-07T00:16:30.736Z,50.79
2022-09-07T00:19:02.087Z,50.94
2022-09-07T00:21:31.514Z,51.06
2022-09-07T00:24:00.642Z,50.90
2022-09-07T00:26:31.355Z,50.78
2022-09-07T00:29:19.183Z,51.17
2022-09-07T00:31:47.303Z,50.88
2022-09-07T00:34:16.589Z,51.21
2022-09-07T00:36:45.126Z,51.25
2022-09-07T00:39:14.296Z,51.00
2022-09-07T00:41:42.717Z,50.93
2022-09-07T00:44:45.012Z,51.14
2022-09-07T00:47:20.240Z,51.10
2022-09-07T00:49:58.653Z,51.54
2022-09-07T00:52:28.506Z,51.54
2022-09-07T00:55:02.714Z,52.03
2022-09-07T00:57:31.425Z,52.03
2022-09-07T01:00:00.241Z,51.62
2022-09-07T01:02:28.238Z,51.58
2022-09-07T01:05:09.588Z,51.42
2022-09-07T01:07:37.928Z,51.96
2022-09-07T01:10:07.746Z,51.93
2022-09-07T01:12:35.799Z,51.42
2022-09-07T01:15:04.873Z,51.64
2022-09-07T01:17:47.223Z,51.54
2022-09-07T01:20:50.608Z,51.74
2022-09-07T01:24:15.150Z,52.04
2022-09-07T01:27:57.075Z,52.22
2022-09-07T01:30:25.975Z,52.60
2022-09-07T01:33:33.531Z,52.08
2022-09-07T01:36:13.533Z,52.65
2022-09-07T01:38:56.624Z,52.75
2022-09-07T01:41:54.808Z,52.85
2022-09-07T01:44:58.307Z,53.07
2022-09-07T01:47:46.285Z,52.84
2022-09-07T01:50:39.394Z,52.60
2022-09-07T01:53:24.939Z,52.59
2022-09-07T01:56:05.207Z,52.55
2022-09-07T01:58:56.303Z,52.53
2022-09-07T02:01:34.039Z,52.46
2022-09-07T02:04:31.518Z,52.02
2022-09-07T02:07:35.857Z,52.36
2022-09-07T02:10:35.138Z,52.29
2022-09-07T02:13:34.987Z,52.16
2022-09-07T02:16:29.880Z,51.88
2022-09-07T02:19:08.167Z,51.84
2022-09-07T02:21:48.556Z,52.10
2022-09-07T02:24:41.809Z,52.33
2022-09-07T02:27:22.215Z,52.63
2022-09-07T08:34:01.887Z,51.20
2022-09-07T08:36:31.748Z,50.94
2022-09-07T08:39:00.201Z,50.44
2022-09-07T08:42:12.406Z,50.29
2022-09-07T08:45:11.856Z,50.51
2022-09-07T08:47:50.537Z,50.49
2022-09-07T08:50:52.197Z,50.30
2022-09-07T08:53:21.873Z,51.33
2022-09-07T08:56:13.991Z,50.42
2022-09-07T08:58:51.351Z,50.29
2022-09-07T09:01:37.586Z,49.71
2022-09-07T09:04:20.758Z,49.08
2022-09-07T09:07:03.397Z,48.61
2022-09-07T09:10:05.914Z,48.97
2022-09-07T09:13:17.147Z,48.87
2022-09-07T09:16:00.588Z,48.66
2022-09-07T09:18:55.504Z,48.27
2022-09-07T09:21:23.485Z,48.62
2022-09-07T09:23:55.367Z,48.43
2022-09-07T09:26:30.607Z,48.23
2022-09-07T09:28:58.706Z,48.12
2022-09-07T09:31:36.064Z,47.99
2022-09-07T09:34:17.694Z,47.72
2022-09-07T09:36:55.997Z,48.16
2022-09-07T09:39:37.696Z,48.00
2022-09-07T09:42:11.548Z,47.64
2022-09-07T09:44:40.099Z,47.71
2022-09-07T09:47:30.971Z,47.65
2022-09-07T09:53:42.789Z,47.50
2022-09-07T09:56:10.979Z,47.53
2022-09-07T10:01:35.446Z,46.75
2022-09-07T10:04:34.744Z,46.76
2022-09-07T10:07:28.442Z,46.72
2022-09-07T10:09:56.932Z,46.22
2022-09-07T10:12:35.746Z,46.26
2022-09-07T10:15:08.898Z,45.84
2022-09-07T10:17:43.359Z,46.34
2022-09-07T10:20:16.793Z,46.11
2022-09-07T10:22:51.948Z,45.81
2022-09-07T10:25:41.555Z,45.88
2022-09-07T10:28:12.866Z,45.83
2022-09-07T10:31:31.824Z,45.75
2022-09-07T10:34:27.329Z,45.92
2022-09-07T10:37:05.798Z,45.64
2022-09-07T10:39:42.931Z,45.67
2022-09-07T10:42:33.987Z,45.23
2022-09-07T10:45:29.083Z,45.57
2022-09-07T10:56:16.960Z,45.68
2022-09-07T10:59:15.774Z,45.27
2022-09-07T11:02:03.483Z,45.00
2022-09-07T11:04:54.634Z,44.63
2022-09-07T11:08:05.052Z,44.08
2022-09-07T11:11:01.757Z,44.12
2022-09-07T11:13:50.193Z,44.09
2022-09-07T11:16:53.716Z,44.03
2022-09-07T11:19:55.196Z,43.66
2022-09-07T11:22:46.595Z,43.35
2022-09-07T11:25:30.566Z,44.78
2022-09-07T11:28:07.630Z,43.64
2022-09-07T11:31:00.361Z,42.98
2022-09-07T11:33:41.291Z,42.20
2022-09-07T11:36:16.815Z,42.37
2022-09-07T11:39:13.043Z,42.57
2022-09-07T11:45:22.108Z,42.09
2022-09-07T11:48:31.184Z,42.28
2022-09-07T11:51:08.912Z,41.74
2022-09-07T11:53:44.140Z,41.88
2022-09-07T11:56:37.644Z,41.41
2022-09-07T11:59:19.638Z,41.18
2022-09-07T12:02:58.389Z,41.25
2022-09-07T12:06:12.743Z,41.17
2022-09-07T12:09:09.748Z,40.53
2022-09-07T12:11:46.777Z,40.31
2022-09-07T12:14:42.481Z,40.68
2022-09-07T12:17:44.359Z,39.73
2022-09-07T12:20:14.686Z,39.85
2022-09-07T12:23:05.945Z,39.70
2022-09-07T12:25:34.988Z,39.99
2022-09-07T12:28:03.277Z,39.67
2022-09-07T12:30:32.160Z,39.11
2022-09-07T12:33:18.526Z,38.98
2022-09-07T12:35:46.929Z,38.61
2022-09-07T12:38:18.650Z,38.51
2022-09-07T12:40:58.812Z,38.71
2022-09-07T12:43:47.012Z,38.25
2022-09-07T12:46:35.048Z,38.29
2022-09-07T12:49:29.749Z,38.35
2022-09-07T12:52:45.883Z,38.26
2022-09-07T12:59:04.964Z,38.38
2022-09-07T13:01:44.413Z,39.91
2022-09-07T13:04:22.938Z,38.28
2022-09-07T13:07:27.915Z,37.80
2022-09-07T13:09:59.243Z,37.30
2022-09-07T13:13:00.372Z,37.15
2022-09-07T13:16:14.453Z,36.84
2022-09-07T13:18:47.139Z,36.65
2022-09-07T13:21:17.413Z,36.19
2022-09-07T13:27:11.087Z,36.26
2022-09-07T13:29:42.151Z,35.92
2022-09-07T13:33:07.995Z,35.78
2022-09-07T13:35:20.595Z,35.66
2022-09-07T13:38:01.705Z,35.65
2022-09-07T13:40:34.412Z,37.35
2022-09-07T13:43:04.434Z,36.47
2022-09-07T13:45:48.511Z,35.95
2022-09-07T13:48:37.464Z,35.81
2022-09-07T13:51:29.681Z,35.59
2022-09-07T13:54:21.953Z,35.71
2022-09-07T13:57:30.776Z,35.64
2022-09-07T13:59:59.258Z,35.29
2022-09-07T14:02:33.493Z,35.38
2022-09-07T14:05:04.293Z,35.25
2022-09-07T14:07:32.513Z,35.32
2022-09-07T14:10:13.284Z,35.14
2022-09-07T14:12:51.344Z,35.13
2022-09-07T14:15:45.320Z,35.20
2022-09-07T14:18:44.376Z,35.35
2022-09-07T14:21:19.056Z,35.17
2022-09-07T14:23:51.397Z,35.22
2022-09-07T14:26:23.021Z,34.86
2022-09-07T14:28:55.146Z,34.74
2022-09-07T14:31:25.332Z,34.80
2022-09-07T14:33:58.278Z,34.84
2022-09-07T14:36:45.227Z,34.79
2022-09-07T14:39:19.454Z,34.85
2022-09-07T14:41:48.103Z,34.21
2022-09-07T14:44:39.012Z,34.50
2022-09-07T14:47:29.113Z,34.47
2022-09-07T14:50:06.010Z,34.12
2022-09-07T14:53:33.288Z,34.45
2022-09-07T14:55:38.186Z,34.32
2022-09-07T14:58:14.663Z,34.27
2022-09-07T15:00:46.275Z,34.26
2022-09-07T15:03:51.200Z,33.69
2022-09-07T15:09:39.726Z,33.93
2022-09-07T15:12:33.077Z,33.80
2022-09-07T15:15:26.583Z,33.75
2022-09-07T15:18:04.541Z,33.66
2022-09-07T15:20:44.064Z,33.52
2022-09-07T15:23:19.568Z,33.35
2022-09-07T15:25:54.250Z,32.49
2022-09-07T15:34:16.109Z,32.75
2022-09-07T15:36:51.312Z,32.59
2022-09-07T15:39:28.261Z,32.55
2022-09-07T15:42:00.160Z,32.61
2022-09-07T15:44:46.514Z,32.78
2022-09-07T15:50:03.355Z,33.16
2022-09-07T15:52:35.786Z,33.09
2022-09-07T15:55:04.289Z,33.26
2022-09-07T16:00:20.998Z,33.88
2022-09-07T16:03:06.800Z,33.73
2022-09-07T16:05:35.223Z,33.81
2022-09-07T16:10:54.238Z,34.36
2022-09-07T16:13:24.610Z,34.10
2022-09-07T16:15:52.591Z,34.29
2022-09-07T16:18:20.854Z,34.13
2022-09-07T16:20:52.587Z,34.45
2022-09-07T16:23:21.838Z,34.87
2022-09-07T16:25:59.056Z,35.20
2022-09-07T16:28:28.935Z,34.96
2022-09-07T16:30:57.431Z,35.11
2022-09-07T16:33:33.150Z,35.56
2022-09-07T16:36:16.282Z,36.06
2022-09-07T16:38:48.396Z,36.18
2022-09-07T16:41:23.165Z,35.86
2022-09-07T16:43:51.490Z,35.69
2022-09-07T16:46:23.932Z,35.63
2022-09-07T16:48:54.412Z,35.61
2022-09-07T16:51:24.897Z,35.42
2022-09-07T16:53:58.880Z,36.05
2022-09-07T16:56:33.695Z,35.63
2022-09-07T16:59:08.887Z,36.00
2022-09-07T17:01:38.293Z,36.25
2022-09-07T17:04:10.663Z,36.07
2022-09-07T17:06:40.304Z,36.23
2022-09-07T17:09:10.752Z,36.64
2022-09-07T17:11:39.127Z,36.52
2022-09-07T17:14:07.466Z,36.46
2022-09-07T17:16:41.054Z,36.30
2022-09-07T17:22:01.234Z,36.71
2022-09-07T17:24:32.203Z,36.92
2022-09-07T17:27:01.261Z,37.38
2022-09-07T17:29:33.888Z,37.53
2022-09-07T17:34:55.634Z,37.41
2022-09-07T17:37:23.849Z,37.33
2022-09-07T17:39:52.174Z,37.35
2022-09-07T17:42:22.653Z,36.97
2022-09-07T17:44:53.996Z,37.42
2022-09-07T17:47:23.402Z,36.80
2022-09-07T17:49:51.951Z,37.05
2022-09-07T17:52:19.972Z,36.81
2022-09-07T17:54:48.147Z,37.04
2022-09-07T17:57:17.038Z,36.86
2022-09-07T18:02:38.764Z,36.90
2022-09-07T18:05:07.504Z,37.05
2022-09-07T18:07:35.326Z,37.38
2022-09-07T18:10:03.369Z,37.59
2022-09-07T18:12:33.022Z,37.89
2022-09-07T18:15:01.287Z,38.28
2022-09-07T18:17:30.175Z,39.14
2022-09-07T18:19:58.841Z,39.62
2022-09-07T18:22:30.549Z,40.09
2022-09-07T18:25:00.685Z,40.36
2022-09-07T18:27:28.631Z,40.53
2022-09-07T18:29:57.022Z,40.72
2022-09-07T18:32:26.265Z,41.01
2022-09-07T18:34:54.671Z,41.27
2022-09-07T18:37:22.881Z,41.45
2022-09-07T18:39:51.015Z,42.14
2022-09-07T18:42:19.025Z,43.02
2022-09-07T18:47:39.953Z,43.17
2022-09-07T18:50:11.434Z,44.07
2022-09-07T18:53:04.131Z,44.30
2022-09-07T18:55:28.654Z,45.08
2022-09-07T18:57:57.233Z,45.19
2022-09-07T19:00:26.333Z,45.53
2022-09-07T19:02:55.864Z,45.87
2022-09-07T19:08:15.315Z,46.06
2022-09-07T19:10:44.863Z,46.39
2022-09-07T19:13:14.401Z,46.52
2022-09-07T19:15:42.971Z,46.66
2022-09-07T19:18:12.190Z,46.66
2022-09-07T19:20:41.278Z,46.71
2022-09-07T19:23:09.612Z,46.96
2022-09-07T19:25:45.045Z,47.09
2022-09-07T19:28:13.476Z,47.51
2022-09-07T19:30:42.020Z,47.30
2022-09-07T19:33:12.821Z,47.23
2022-09-07T19:35:41.666Z,47.84
2022-09-07T19:38:10.373Z,47.86
2022-09-07T19:40:39.865Z,48.26
2022-09-07T19:43:08.963Z,48.33
2022-09-07T19:45:41.631Z,48.26
2022-09-07T19:48:09.759Z,48.22
2022-09-07T19:50:38.538Z,48.54
2022-09-07T19:53:08.470Z,48.54
2022-09-07T19:55:36.785Z,48.43
2022-09-07T19:58:06.048Z,48.80
2022-09-07T20:00:34.606Z,48.70
2022-09-07T20:03:03.143Z,48.53
2022-09-07T20:05:32.226Z,48.75
2022-09-07T20:08:01.520Z,49.14
2022-09-07T20:10:32.922Z,48.90
2022-09-07T20:13:01.067Z,48.96
2022-09-07T20:15:29.970Z,49.37
2022-09-07T20:17:59.356Z,49.44
2022-09-07T20:20:27.212Z,49.48
2022-09-07T20:22:55.059Z,49.19
2022-09-07T20:25:23.764Z,49.20
2022-09-07T20:27:51.540Z,48.93
2022-09-07T20:30:19.468Z,48.94
2022-09-07T20:32:51.723Z,49.15
2022-09-07T20:35:20.156Z,48.95
2022-09-07T20:37:48.817Z,49.13
2022-09-07T20:40:17.026Z,49.08
2022-09-07T20:42:46.187Z,49.06
2022-09-07T20:45:14.643Z,49.12
2022-09-07T20:47:44.814Z,49.30
2022-09-07T20:50:12.728Z,49.12
2022-09-07T20:52:41.410Z,49.23
2022-09-07T20:55:09.887Z,49.31
2022-09-07T20:57:38.044Z,49.55
2022-09-07T21:00:11.156Z,49.41
2022-09-07T21:02:39.366Z,49.40
2022-09-07T21:05:09.440Z,49.36
2022-09-07T21:07:41.710Z,49.43
2022-09-07T21:10:10.375Z,49.67
2022-09-07T21:12:38.485Z,49.60
2022-09-07T21:15:08.931Z,49.72
2022-09-07T21:17:36.773Z,49.71
2022-09-07T21:20:05.851Z,49.59
2022-09-07T21:22:33.502Z,49.65
2022-09-07T21:25:02.241Z,50.04
2022-09-07T21:27:38.084Z,50.29
2022-09-07T21:30:07.514Z,50.39
2022-09-07T21:32:35.350Z,50.90
2022-09-07T21:35:03.132Z,51.04
2022-09-07T21:37:31.775Z,51.20
2022-09-07T21:40:01.490Z,51.38
2022-09-07T21:42:30.486Z,51.50
2022-09-07T21:44:59.578Z,51.44
2022-09-07T21:47:27.696Z,51.59
2022-09-07T21:49:55.876Z,51.70
2022-09-07T21:52:24.351Z,51.79
2022-09-07T21:54:53.928Z,52.00
2022-09-07T21:57:22.306Z,52.01
2022-09-07T21:59:50.439Z,51.98
2022-09-07T22:02:18.752Z,52.03
2022-09-07T22:04:47.286Z,51.89
2022-09-07T22:07:15.350Z,52.12
2022-09-07T22:09:43.837Z,52.25
2022-09-07T22:12:11.603Z,52.53
2022-09-07T22:14:39.838Z,52.49
2022-09-07T22:17:09.581Z,52.41
2022-09-07T22:19:39.634Z,52.69
2022-09-07T22:22:08.539Z,52.52
2022-09-07T22:24:36.281Z,52.84
2022-09-07T22:27:05.038Z,52.96
2022-09-07T22:29:33.385Z,52.78
2022-09-07T22:32:01.395Z,53.25
2022-09-07T22:34:29.603Z,53.46
2022-09-07T22:36:57.406Z,53.49
2022-09-07T22:39:25.634Z,52.97
2022-09-07T22:41:53.796Z,53.10
2022-09-07T22:44:21.999Z,53.13
2022-09-07T22:46:50.563Z,53.40
2022-09-07T22:49:29.576Z,53.64
2022-09-07T22:51:57.961Z,53.32
2022-09-07T22:54:25.756Z,53.59
2022-09-07T22:56:53.628Z,53.97
2022-09-07T22:59:22.374Z,53.67
2022-09-07T23:01:50.725Z,53.78
2022-09-07T23:04:18.631Z,53.68
2022-09-07T23:06:46.913Z,54.11
2022-09-07T23:09:18.290Z,53.98
2022-09-07T23:11:48.722Z,54.38
2022-09-07T23:14:20.310Z,54.01
2022-09-07T23:16:49.047Z,54.29
2022-09-07T23:19:19.767Z,54.02
2022-09-07T23:21:48.085Z,54.00
2022-09-07T23:24:18.500Z,53.75
2022-09-07T23:26:46.973Z,53.91
2022-09-07T23:29:15.849Z,54.05
2022-09-07T23:31:47.263Z,54.07
2022-09-07T23:34:15.809Z,53.84
2022-09-07T23:36:43.606Z,53.97
2022-09-07T23:39:11.408Z,53.95
2022-09-07T23:41:40.345Z,53.89
2022-09-07T23:44:09.513Z,53.93
2022-09-07T23:46:37.853Z,54.13
2022-09-07T23:49:06.285Z,54.57
2022-09-07T23:51:34.459Z,54.43
2022-09-07T23:54:02.832Z,54.45
2022-09-07T23:56:33.014Z,54.55
2022-09-07T23:59:01.158Z,54.24
